Time;durP1;ratioP1;P1;durP2;ratioP2;P2;SDS_P1;SDS_P2;PMS_P1;PMS_P2;Temp;Humidity;BMP_temperature;BMP_pressure;BME280_temperature;BME280_humidity;BME280_pressure;Samples;Min_cycle;Max_cycle;Signal;HPM_P1;HPM_P2
2023/12/09 00:01:27;;;;;;;39.07;20.10;;;0.50;99.90;;;;;;7857402;28;20675;-90
2023/12/09 00:05:12;;;;;;;38.17;17.57;;;0.60;99.90;;;;;;7857498;28;20252;-90
2023/12/09 00:08:58;;;;;;;39.23;19.23;;;0.50;99.90;;;;;;7857896;28;20193;-90
2023/12/09 00:12:43;;;;;;;43.43;18.93;;;0.50;99.90;;;;;;7869084;28;20228;-90
2023/12/09 00:16:30;;;;;;;40.23;17.83;;;0.60;99.90;;;;;;7874717;28;20231;-89
2023/12/09 00:20:16;;;;;;;41.57;19.30;;;0.60;99.90;;;;;;7856792;28;20589;-89
2023/12/09 00:24:02;;;;;;;37.07;17.57;;;0.60;99.90;;;;;;7856531;28;20217;-89
2023/12/09 00:27:47;;;;;;;38.00;18.97;;;0.60;99.90;;;;;;7843883;28;20228;-90
2023/12/09 00:31:33;;;;;;;39.33;18.30;;;0.60;99.90;;;;;;7825382;28;20201;-89
2023/12/09 00:35:19;;;;;;;37.27;18.17;;;0.60;99.90;;;;;;7825054;28;20542;-90
2023/12/09 00:39:05;;;;;;;33.83;17.57;;;0.60;99.90;;;;;;7843148;28;20170;-91
2023/12/09 00:42:50;;;;;;;38.83;17.73;;;0.60;99.90;;;;;;7843053;28;20201;-90
2023/12/09 00:46:36;;;;;;;42.10;18.37;;;0.60;99.90;;;;;;7834514;28;20189;-90
2023/12/09 00:50:22;;;;;;;40.27;18.23;;;0.70;99.90;;;;;;7889362;28;20216;-90
2023/12/09 00:54:07;;;;;;;35.83;18.27;;;0.60;99.90;;;;;;7873762;28;20605;-89
2023/12/09 00:57:53;;;;;;;35.37;16.67;;;0.60;99.90;;;;;;7841679;28;20181;-90
2023/12/09 01:01:38;;;;;;;36.13;16.53;;;0.60;99.90;;;;;;7834136;28;20197;-90
2023/12/09 01:05:24;;;;;;;38.57;17.87;;;0.60;99.90;;;;;;7863579;28;20235;-90
2023/12/09 01:09:10;;;;;;;39.37;18.27;;;0.60;99.90;;;;;;7872587;28;20237;-89
2023/12/09 01:12:55;;;;;;;37.60;17.40;;;0.70;99.90;;;;;;7871866;28;20213;-89
2023/12/09 01:16:41;;;;;;;37.57;17.70;;;0.70;99.90;;;;;;7871826;28;20173;-90
2023/12/09 01:20:27;;;;;;;36.30;17.23;;;0.70;99.90;;;;;;7872969;28;20185;-89
2023/12/09 01:24:12;;;;;;;36.30;17.77;;;0.80;99.90;;;;;;7855343;28;20288;-89
2023/12/09 01:27:58;;;;;;;37.63;17.47;;;0.70;99.90;;;;;;7856204;28;20804;-89
2023/12/09 01:31:43;;;;;;;43.10;19.20;;;0.70;99.90;;;;;;7854455;28;20249;-89
2023/12/09 01:35:29;;;;;;;37.47;17.90;;;0.70;99.90;;;;;;7871338;28;20645;-90
2023/12/09 01:39:15;;;;;;;38.43;17.80;;;0.90;99.90;;;;;;7854868;28;20188;-89
2023/12/09 01:43:01;;;;;;;39.10;18.87;;;0.70;99.90;;;;;;7854298;28;20259;-89
2023/12/09 01:46:47;;;;;;;38.07;18.40;;;0.80;99.90;;;;;;7872136;28;20181;-90
2023/12/09 01:50:32;;;;;;;36.20;18.03;;;0.80;99.90;;;;;;7854266;28;20208;-90
2023/12/09 01:54:18;;;;;;;39.83;17.87;;;0.80;99.90;;;;;;7854048;28;20225;-90
2023/12/09 01:58:04;;;;;;;42.13;18.80;;;0.80;99.90;;;;;;7853958;28;20188;-89
2023/12/09 02:01:52;;;;;;;39.10;18.87;;;0.70;99.90;;;;;;7853743;28;20772;-90
2023/12/09 02:05:37;;;;;;;39.27;18.80;;;0.80;99.90;;;;;;7853462;28;20192;-89
2023/12/09 02:09:23;;;;;;;50.03;20.37;;;0.80;99.90;;;;;;7853439;28;20185;-90
2023/12/09 02:13:12;;;;;;;42.93;19.73;;;0.90;99.90;;;;;;7871260;28;20197;-89
2023/12/09 02:17:13;;;;;;;45.20;19.50;;;0.80;99.90;;;;;;7853138;28;20179;-89
2023/12/09 02:20:59;;;;;;;43.67;19.53;;;0.80;99.90;;;;;;7853600;28;20181;-89
2023/12/09 02:24:44;;;;;;;45.53;20.17;;;0.90;99.90;;;;;;7852506;28;20219;-90
2023/12/09 02:28:32;;;;;;;43.90;19.80;;;0.80;99.90;;;;;;7853058;28;20177;-89
2023/12/09 02:32:23;;;;;;;42.53;19.70;;;0.80;99.90;;;;;;7852850;28;20213;-89
2023/12/09 02:36:10;;;;;;;42.37;19.40;;;0.80;99.90;;;;;;7852745;28;20181;-89
2023/12/09 02:39:57;;;;;;;47.00;20.23;;;0.80;99.90;;;;;;7852758;28;20181;-89
2023/12/09 02:43:47;;;;;;;41.63;20.07;;;0.80;99.90;;;;;;7852478;28;20197;-89
2023/12/09 02:47:32;;;;;;;44.73;20.27;;;0.80;99.90;;;;;;7852450;28;20178;-89
2023/12/09 02:51:18;;;;;;;48.50;20.73;;;0.90;99.90;;;;;;7870145;28;20258;-89
2023/12/09 02:55:04;;;;;;;48.57;20.60;;;0.70;99.90;;;;;;7852199;28;20738;-89
2023/12/09 02:58:49;;;;;;;43.00;19.90;;;0.80;99.90;;;;;;7870160;28;20613;-89
2023/12/09 03:02:35;;;;;;;44.57;20.37;;;0.80;99.90;;;;;;7852786;28;20220;-88
2023/12/09 03:06:21;;;;;;;49.67;21.57;;;0.80;99.90;;;;;;7852144;28;20203;-88
2023/12/09 03:10:07;;;;;;;48.17;20.07;;;0.80;99.90;;;;;;7885482;28;20773;-89
2023/12/09 03:13:52;;;;;;;43.60;19.87;;;0.80;99.90;;;;;;7869888;28;20193;-88
2023/12/09 03:17:38;;;;;;;46.50;20.47;;;0.80;99.90;;;;;;7840878;28;20189;-87
2023/12/09 03:21:23;;;;;;;47.27;20.53;;;0.80;99.90;;;;;;7865500;28;20191;-89
2023/12/09 03:25:09;;;;;;;45.43;20.27;;;0.90;99.90;;;;;;7851815;28;20200;-89
2023/12/09 03:28:55;;;;;;;42.73;19.53;;;0.80;99.90;;;;;;7851872;28;20185;-89
2023/12/09 03:32:41;;;;;;;44.70;19.47;;;0.80;99.90;;;;;;7875816;28;20258;-88
2023/12/09 03:36:26;;;;;;;51.30;20.57;;;0.90;99.90;;;;;;7857798;28;20188;-88
2023/12/09 03:40:12;;;;;;;41.97;19.70;;;0.80;99.90;;;;;;7875856;28;20651;-89
2023/12/09 03:43:58;;;;;;;47.37;19.77;;;1.00;99.90;;;;;;7857831;28;20827;-89
2023/12/09 03:47:44;;;;;;;46.40;19.63;;;1.00;99.90;;;;;;7875581;28;20177;-89
2023/12/09 03:51:30;;;;;;;44.53;20.33;;;0.80;99.90;;;;;;7875574;28;20220;-89
2023/12/09 03:55:16;;;;;;;47.23;19.57;;;0.80;99.90;;;;;;7857452;28;20184;-89
2023/12/09 03:59:01;;;;;;;41.97;18.70;;;0.90;99.90;;;;;;7857427;28;20181;-89
2023/12/09 04:02:47;;;;;;;43.03;20.83;;;1.00;99.90;;;;;;7858786;28;20205;-89
2023/12/09 04:06:32;;;;;;;45.00;19.87;;;0.90;99.90;;;;;;7857631;28;20177;-89
2023/12/09 04:10:18;;;;;;;46.83;20.03;;;0.90;99.90;;;;;;7856801;28;20284;-89
2023/12/09 04:14:04;;;;;;;43.90;20.13;;;0.90;99.90;;;;;;7856845;28;20197;-89
2023/12/09 04:17:49;;;;;;;43.17;19.77;;;0.90;99.90;;;;;;7874812;28;20256;-89
2023/12/09 04:21:35;;;;;;;45.33;19.47;;;0.90;99.90;;;;;;7856649;28;20209;-89
2023/12/09 04:25:21;;;;;;;47.73;20.40;;;0.90;99.90;;;;;;7874438;28;20180;-89
2023/12/09 04:29:07;;;;;;;45.60;19.50;;;0.90;99.90;;;;;;7874366;28;20177;-89
2023/12/09 04:32:52;;;;;;;45.13;19.67;;;0.90;99.90;;;;;;7856415;28;20220;-88
2023/12/09 04:36:38;;;;;;;43.27;19.67;;;0.90;99.90;;;;;;7856347;28;20550;-89
2023/12/09 04:40:23;;;;;;;43.93;19.13;;;1.00;99.90;;;;;;7874144;28;20638;-89
2023/12/09 04:44:09;;;;;;;42.27;19.40;;;0.90;99.90;;;;;;7856075;28;20205;-88
2023/12/09 04:47:55;;;;;;;46.90;19.13;;;0.90;99.90;;;;;;7856059;28;20185;-89
2023/12/09 04:51:40;;;;;;;47.37;20.00;;;0.90;99.90;;;;;;7889389;28;20217;-90
2023/12/09 04:55:26;;;;;;;40.23;18.87;;;0.80;99.90;;;;;;7856026;28;20581;-89
2023/12/09 04:59:12;;;;;;;42.40;19.27;;;0.90;99.90;;;;;;7855701;28;20203;-88
2023/12/09 05:02:57;;;;;;;40.80;19.23;;;0.90;99.90;;;;;;7856293;28;20220;-89
2023/12/09 05:06:43;;;;;;;46.17;18.53;;;0.90;99.90;;;;;;7890356;28;20276;-89
2023/12/09 05:10:29;;;;;;;46.13;19.57;;;0.90;99.90;;;;;;7866722;28;20205;-89
2023/12/09 05:14:15;;;;;;;42.93;19.67;;;0.90;99.90;;;;;;7888795;28;20204;-87
2023/12/09 05:18:00;;;;;;;43.73;18.97;;;1.00;99.90;;;;;;7873145;28;20180;-88
2023/12/09 05:21:46;;;;;;;45.80;19.30;;;0.90;99.90;;;;;;7854798;28;20209;-89
2023/12/09 05:25:31;;;;;;;42.83;18.60;;;0.90;99.90;;;;;;7854822;28;20256;-88
2023/12/09 05:29:17;;;;;;;46.03;19.93;;;0.90;99.90;;;;;;7854787;28;20230;-88
2023/12/09 05:33:12;;;;;;;47.30;20.03;;;0.90;99.90;;;;;;7872252;28;20197;-88
2023/12/09 05:36:58;;;;;;;43.70;18.37;;;0.90;99.90;;;;;;7872409;28;20169;-88
2023/12/09 05:40:43;;;;;;;42.30;19.50;;;0.90;99.90;;;;;;7842500;28;20178;-88
2023/12/09 05:44:29;;;;;;;47.50;20.53;;;0.90;99.90;;;;;;7871330;28;20210;-88
2023/12/09 05:48:15;;;;;;;43.10;19.70;;;1.00;99.90;;;;;;7853929;28;20830;-88
2023/12/09 05:52:00;;;;;;;45.70;20.47;;;0.90;99.90;;;;;;7886912;28;20211;-89
2023/12/09 05:55:48;;;;;;;40.27;18.77;;;1.00;99.90;;;;;;7858116;28;20193;-89
2023/12/09 05:59:34;;;;;;;46.90;20.03;;;0.90;99.90;;;;;;7854002;28;20176;-88
2023/12/09 06:03:19;;;;;;;43.27;19.53;;;0.90;99.90;;;;;;7853681;28;20197;-90
2023/12/09 06:07:11;;;;;;;46.13;19.57;;;0.90;99.90;;;;;;7853286;28;20535;-89
2023/12/09 06:10:57;;;;;;;45.83;19.63;;;0.90;99.90;;;;;;7853272;28;20699;-89
2023/12/09 06:14:43;;;;;;;46.83;19.83;;;1.00;99.90;;;;;;7848830;28;20255;-89
2023/12/09 06:18:29;;;;;;;43.17;18.90;;;0.80;99.90;;;;;;7822476;28;20178;-89
2023/12/09 06:22:14;;;;;;;45.47;19.93;;;1.00;99.90;;;;;;7822208;28;20300;-88
2023/12/09 06:26:02;;;;;;;42.50;19.20;;;0.90;99.90;;;;;;7822007;28;20190;-89
2023/12/09 06:29:47;;;;;;;49.23;20.33;;;0.90;99.90;;;;;;7822096;28;20323;-87
2023/12/09 06:33:40;;;;;;;47.33;20.13;;;0.90;99.90;;;;;;7839856;28;20190;-89
2023/12/09 06:37:25;;;;;;;50.50;19.93;;;0.90;99.90;;;;;;7821919;28;20170;-89
2023/12/09 06:41:11;;;;;;;49.33;20.10;;;0.90;99.90;;;;;;7822091;28;20186;-89
2023/12/09 06:44:57;;;;;;;45.23;19.23;;;0.90;99.90;;;;;;7854382;28;20339;-89
2023/12/09 06:48:43;;;;;;;39.83;17.73;;;0.90;99.90;;;;;;7902011;28;20214;-89
2023/12/09 06:52:29;;;;;;;47.50;18.50;;;0.90;99.90;;;;;;7868839;28;20219;-89
2023/12/09 06:56:21;;;;;;;44.90;18.70;;;0.90;99.90;;;;;;7868810;28;20182;-89
2023/12/09 07:00:08;;;;;;;44.07;18.00;;;0.90;99.90;;;;;;7885732;28;20528;-89
2023/12/09 07:03:54;;;;;;;45.93;18.97;;;0.90;99.90;;;;;;7884643;28;20571;-90
2023/12/09 07:07:40;;;;;;;46.57;19.53;;;0.90;99.90;;;;;;7869788;28;20530;-88
2023/12/09 07:11:26;;;;;;;47.97;19.87;;;1.10;99.90;;;;;;7869472;28;20390;-90
2023/12/09 07:15:12;;;;;;;47.80;20.13;;;0.80;99.90;;;;;;7869855;28;20184;-89
2023/12/09 07:19:00;;;;;;;47.93;19.90;;;0.80;99.90;;;;;;7869820;28;20188;-90
2023/12/09 07:22:46;;;;;;;49.43;19.07;;;0.90;99.90;;;;;;7885055;28;20720;-88
2023/12/09 07:26:32;;;;;;;49.07;20.07;;;0.90;99.90;;;;;;7885198;28;20723;-89
2023/12/09 07:30:17;;;;;;;41.90;18.20;;;0.80;99.90;;;;;;7885339;28;20749;-89
2023/12/09 07:34:03;;;;;;;53.67;20.50;;;0.80;99.90;;;;;;7851554;28;20208;-88
2023/12/09 07:37:49;;;;;;;49.03;19.17;;;0.70;99.90;;;;;;7885296;28;20264;-89
2023/12/09 07:41:35;;;;;;;48.03;20.07;;;0.80;99.90;;;;;;7869557;28;20182;-88
2023/12/09 07:45:20;;;;;;;43.70;19.87;;;0.80;99.90;;;;;;7885147;28;20220;-88
2023/12/09 07:49:06;;;;;;;47.67;18.90;;;0.80;99.90;;;;;;7851657;28;20178;-89
2023/12/09 07:52:52;;;;;;;46.03;18.77;;;0.90;99.90;;;;;;7868807;28;20215;-89
2023/12/09 07:56:37;;;;;;;45.03;19.13;;;0.90;99.90;;;;;;7882440;28;20271;-88
2023/12/09 08:00:26;;;;;;;41.67;18.90;;;1.00;99.90;;;;;;7882793;28;20184;-89
2023/12/09 08:04:12;;;;;;;49.03;19.17;;;1.00;99.90;;;;;;7851203;28;20205;-89
2023/12/09 08:07:58;;;;;;;45.57;18.43;;;1.00;99.90;;;;;;7851247;28;20843;-88
2023/12/09 08:11:43;;;;;;;49.57;19.17;;;1.00;99.90;;;;;;7823607;28;20679;-88
2023/12/09 08:15:29;;;;;;;47.17;18.53;;;1.00;99.90;;;;;;7837426;28;20178;-88
2023/12/09 08:19:14;;;;;;;44.73;17.97;;;1.00;99.90;;;;;;7835855;28;20188;-88
2023/12/09 08:23:47;;;;;;;48.57;18.33;;;1.10;99.90;;;;;;7874514;28;20223;-88
2023/12/09 08:27:33;;;;;;;39.30;17.87;;;1.10;99.90;;;;;;7864574;28;20280;-89
2023/12/09 08:31:19;;;;;;;42.83;18.93;;;1.10;99.90;;;;;;7874520;28;20201;-88
2023/12/09 08:35:06;;;;;;;46.57;19.07;;;1.20;99.90;;;;;;7874336;28;20169;-89
2023/12/09 08:38:52;;;;;;;51.13;19.03;;;1.20;99.90;;;;;;7873676;28;20177;-89
2023/12/09 08:42:42;;;;;;;49.60;19.23;;;1.30;99.90;;;;;;7872968;28;20209;-89
2023/12/09 08:46:28;;;;;;;46.20;19.67;;;1.20;99.90;;;;;;7872872;28;20184;-88
2023/12/09 08:50:14;;;;;;;43.80;18.80;;;1.30;99.90;;;;;;7872511;28;20216;-88
2023/12/09 08:54:00;;;;;;;44.90;18.83;;;1.30;99.90;;;;;;7872585;28;20197;-89
2023/12/09 08:57:45;;;;;;;44.07;18.27;;;1.30;99.90;;;;;;7872427;28;20204;-89
2023/12/09 09:01:31;;;;;;;43.00;18.53;;;1.40;99.90;;;;;;7873569;28;20185;-88
2023/12/09 09:05:17;;;;;;;42.73;18.23;;;1.30;99.90;;;;;;7843136;28;20635;-89
2023/12/09 09:09:04;;;;;;;44.80;17.87;;;1.40;99.90;;;;;;7840894;28;20272;-89
2023/12/09 09:12:50;;;;;;;44.57;18.77;;;1.40;99.90;;;;;;7888779;28;20248;-89
2023/12/09 09:16:35;;;;;;;46.70;18.50;;;1.40;99.90;;;;;;7873183;28;20181;-90
2023/12/09 09:20:22;;;;;;;44.23;18.83;;;1.40;99.90;;;;;;7866429;28;20190;-89
2023/12/09 09:24:10;;;;;;;41.80;17.40;;;1.40;99.90;;;;;;7867209;28;20274;-89
2023/12/09 09:27:56;;;;;;;40.80;17.67;;;1.40;99.90;;;;;;7870732;28;20188;-90
2023/12/09 09:31:43;;;;;;;42.40;17.67;;;1.60;99.90;;;;;;7872370;28;20217;-89
2023/12/09 09:35:29;;;;;;;45.17;18.27;;;1.50;99.90;;;;;;7867165;28;20174;-89
2023/12/09 09:39:15;;;;;;;43.60;19.30;;;1.60;99.90;;;;;;7841791;28;20288;-89
2023/12/09 09:43:07;;;;;;;51.23;19.30;;;1.60;99.90;;;;;;7841853;28;20202;-89
2023/12/09 09:46:57;;;;;;;47.30;19.63;;;1.60;99.90;;;;;;7823002;28;20640;-90
2023/12/09 09:50:47;;;;;;;44.53;18.73;;;1.60;99.90;;;;;;7856080;28;20288;-85
2023/12/09 09:54:34;;;;;;;44.70;19.20;;;1.60;99.90;;;;;;7855338;28;20757;-87
2023/12/09 09:58:20;;;;;;;50.47;19.40;;;1.60;99.90;;;;;;7872624;28;20538;-89
2023/12/09 10:02:07;;;;;;;47.93;19.57;;;1.60;99.90;;;;;;7880334;28;20201;-90
2023/12/09 10:05:53;;;;;;;48.63;20.40;;;1.60;99.90;;;;;;7854049;28;20173;-88
2023/12/09 10:09:39;;;;;;;49.13;20.63;;;1.70;99.90;;;;;;7853327;28;20211;-89
2023/12/09 10:13:25;;;;;;;49.43;20.77;;;1.70;99.90;;;;;;7871949;28;20189;-89
2023/12/09 10:17:11;;;;;;;50.60;20.90;;;1.70;99.90;;;;;;7853683;28;20260;-89
2023/12/09 10:20:57;;;;;;;50.47;20.93;;;1.70;99.90;;;;;;7853233;28;20331;-88
2023/12/09 10:24:50;;;;;;;48.07;18.50;;;1.90;99.90;;;;;;7852826;28;20208;-89
2023/12/09 10:28:36;;;;;;;44.10;19.37;;;1.80;99.90;;;;;;7849895;28;20185;-89
2023/12/09 10:32:22;;;;;;;51.23;18.37;;;1.80;99.90;;;;;;7852852;28;20258;-89
2023/12/09 10:36:08;;;;;;;43.83;18.37;;;1.90;99.90;;;;;;7852486;28;20180;-89
2023/12/09 10:39:54;;;;;;;45.80;17.63;;;1.90;99.90;;;;;;7852685;28;20170;-89
2023/12/09 10:43:40;;;;;;;43.73;17.20;;;1.90;99.90;;;;;;7870693;28;20195;-89
2023/12/09 10:47:26;;;;;;;40.63;16.53;;;1.90;99.90;;;;;;7852735;28;20204;-90
2023/12/09 10:51:12;;;;;;;42.60;17.43;;;1.90;99.90;;;;;;7852708;28;20200;-89
2023/12/09 10:55:04;;;;;;;44.80;18.23;;;1.80;99.90;;;;;;7847067;28;20247;-89
2023/12/09 10:58:51;;;;;;;42.03;17.80;;;1.80;99.90;;;;;;7842426;28;20178;-89
2023/12/09 11:02:41;;;;;;;38.80;16.50;;;1.90;99.90;;;;;;7870165;28;20216;-89
2023/12/09 11:06:31;;;;;;;42.03;16.83;;;1.80;99.90;;;;;;7851972;28;20272;-89
2023/12/09 11:10:29;;;;;;;42.90;16.90;;;1.90;99.90;;;;;;7852358;28;20197;-89
2023/12/09 11:14:15;;;;;;;37.47;17.17;;;1.90;99.90;;;;;;7868638;28;20189;-89
2023/12/09 11:18:11;;;;;;;38.07;16.30;;;1.90;99.90;;;;;;7851957;28;20178;-89
2023/12/09 11:21:57;;;;;;;40.77;17.33;;;1.90;99.90;;;;;;7851590;28;20220;-90
2023/12/09 11:25:43;;;;;;;38.13;16.47;;;1.90;99.90;;;;;;7869723;28;20222;-89
2023/12/09 11:29:29;;;;;;;47.00;17.27;;;1.80;99.90;;;;;;7851900;28;20239;-89
2023/12/09 11:33:16;;;;;;;42.17;16.30;;;1.90;99.90;;;;;;7851669;28;20213;-89
2023/12/09 11:37:05;;;;;;;40.97;16.67;;;1.80;99.90;;;;;;7851849;28;20691;-89
2023/12/09 11:40:51;;;;;;;40.47;16.27;;;1.90;99.90;;;;;;7851917;28;20268;-89
2023/12/09 11:44:50;;;;;;;38.93;16.67;;;1.90;99.90;;;;;;7851365;28;20247;-89
2023/12/09 11:48:36;;;;;;;36.00;15.77;;;1.90;99.90;;;;;;7839901;28;20161;-89
2023/12/09 11:52:23;;;;;;;36.90;16.40;;;1.90;99.90;;;;;;7856353;28;20689;-88
2023/12/09 11:56:09;;;;;;;38.53;16.67;;;1.90;99.90;;;;;;7857384;28;20182;-89
2023/12/09 11:59:55;;;;;;;36.83;15.47;;;1.90;99.90;;;;;;7875557;28;20223;-89
2023/12/09 12:03:50;;;;;;;37.70;15.50;;;1.80;99.90;;;;;;7875188;28;20588;-89
2023/12/09 12:07:37;;;;;;;32.37;13.47;;;1.90;99.90;;;;;;7873723;28;20189;-89
2023/12/09 12:11:37;;;;;;;33.83;14.70;;;1.90;99.90;;;;;;7862257;28;20200;-89
2023/12/09 12:15:23;;;;;;;31.47;14.53;;;1.90;99.90;;;;;;7875177;28;20150;-89
2023/12/09 12:19:20;;;;;;;34.57;14.33;;;1.90;99.90;;;;;;7887535;28;20185;-89
2023/12/09 12:23:05;;;;;;;30.77;13.37;;;2.00;99.90;;;;;;7825951;28;20231;-89
2023/12/09 12:26:57;;;;;;;35.17;14.17;;;2.00;99.90;;;;;;7852078;28;20177;-90
2023/12/09 12:30:44;;;;;;;33.53;15.10;;;2.10;99.90;;;;;;7858969;28;20256;-89
2023/12/09 12:34:30;;;;;;;31.93;13.13;;;2.10;99.90;;;;;;7825313;28;20190;-89
2023/12/09 12:38:16;;;;;;;33.20;14.30;;;2.10;99.90;;;;;;7854894;28;20206;-90
2023/12/09 12:42:02;;;;;;;32.63;13.47;;;2.10;99.90;;;;;;7856807;28;20686;-89
2023/12/09 12:45:52;;;;;;;32.13;12.87;;;2.10;99.90;;;;;;7856132;28;20209;-89
2023/12/09 12:49:38;;;;;;;32.57;12.83;;;2.10;99.90;;;;;;7869940;28;20173;-89
2023/12/09 12:53:25;;;;;;;30.60;14.03;;;2.30;99.90;;;;;;7852200;28;20224;-88
2023/12/09 12:57:11;;;;;;;28.27;13.23;;;2.80;99.90;;;;;;7853794;28;20176;-89
2023/12/09 13:00:56;;;;;;;26.90;11.93;;;3.10;99.90;;;;;;7850948;28;20186;-91
2023/12/09 13:04:42;;;;;;;23.03;10.80;;;3.40;99.90;;;;;;7876168;28;20201;-90
2023/12/09 13:08:38;;;;;;;25.93;11.83;;;3.60;99.90;;;;;;7853563;28;20396;-90
2023/12/09 13:12:24;;;;;;;22.47;11.53;;;3.70;99.90;;;;;;7840069;28;20213;-89
2023/12/09 13:16:10;;;;;;;20.80;10.20;;;3.80;99.90;;;;;;7854319;28;20234;-89
2023/12/09 13:19:56;;;;;;;26.60;11.03;;;3.80;99.90;;;;;;7854330;28;20689;-88
2023/12/09 13:23:42;;;;;;;23.03;10.63;;;3.90;99.90;;;;;;7846989;28;20298;-89
2023/12/09 13:27:28;;;;;;;23.93;10.70;;;3.80;99.90;;;;;;7873002;28;20173;-89
2023/12/09 13:31:15;;;;;;;21.83;10.43;;;3.70;99.90;;;;;;7849593;28;20208;-89
2023/12/09 13:35:01;;;;;;;21.63;10.90;;;3.70;99.90;;;;;;7871560;28;20246;-89
2023/12/09 13:38:47;;;;;;;22.53;11.43;;;3.60;99.90;;;;;;7872319;28;20658;-89
2023/12/09 13:42:33;;;;;;;23.57;11.57;;;3.60;99.90;;;;;;7869957;28;20691;-90
2023/12/09 13:46:19;;;;;;;26.53;11.43;;;3.50;99.90;;;;;;7870983;28;20185;-89
2023/12/09 13:50:07;;;;;;;26.97;12.00;;;3.50;99.90;;;;;;7851510;28;20227;-89
2023/12/09 13:53:53;;;;;;;28.20;12.57;;;3.50;99.90;;;;;;7860443;28;20212;-90
2023/12/09 13:57:39;;;;;;;25.43;12.03;;;3.40;99.90;;;;;;7843739;28;20188;-89
2023/12/09 14:01:24;;;;;;;28.20;11.97;;;3.30;99.90;;;;;;7872211;28;20196;-89
2023/12/09 14:05:11;;;;;;;26.33;11.97;;;3.20;99.90;;;;;;7863247;28;20193;-89
2023/12/09 14:08:57;;;;;;;26.53;12.60;;;3.20;99.90;;;;;;7872488;28;20650;-91
2023/12/09 14:12:43;;;;;;;30.17;13.90;;;3.20;99.90;;;;;;7856306;28;20625;-88
2023/12/09 14:16:29;;;;;;;30.27;14.30;;;3.20;99.90;;;;;;7847300;28;20192;-89
2023/12/09 14:20:15;;;;;;;35.23;14.63;;;3.20;99.90;;;;;;7881842;28;20184;-91
2023/12/09 14:24:01;;;;;;;34.57;15.27;;;3.10;99.90;;;;;;7853338;28;20583;-91
2023/12/09 14:27:46;;;;;;;36.23;15.80;;;3.10;99.90;;;;;;7853198;28;20674;-89
2023/12/09 14:31:33;;;;;;;37.23;16.23;;;3.00;99.90;;;;;;7849803;28;20224;-90
2023/12/09 14:35:19;;;;;;;40.27;17.00;;;3.00;99.90;;;;;;7849065;28;20657;-89
2023/12/09 14:39:06;;;;;;;40.40;17.37;;;2.90;99.90;;;;;;7868235;28;20177;-90
2023/12/09 14:42:52;;;;;;;38.83;16.93;;;2.80;99.90;;;;;;7850393;28;20212;-88
2023/12/09 14:46:38;;;;;;;40.27;17.37;;;2.70;99.90;;;;;;7848551;28;20185;-90
2023/12/09 14:50:24;;;;;;;38.63;16.37;;;2.60;99.90;;;;;;7847779;28;20200;-90
2023/12/09 14:54:12;;;;;;;39.17;17.57;;;2.60;99.90;;;;;;7842644;28;20272;-89
2023/12/09 14:57:58;;;;;;;39.03;17.13;;;2.50;99.90;;;;;;7854154;28;20177;-89
2023/12/09 15:01:44;;;;;;;41.07;16.90;;;2.50;99.90;;;;;;7849053;28;20205;-90
2023/12/09 15:05:30;;;;;;;37.77;16.87;;;2.50;99.90;;;;;;7850507;28;20185;-88
2023/12/09 15:09:16;;;;;;;40.60;16.67;;;2.50;99.90;;;;;;7848180;28;20185;-89
2023/12/09 15:13:02;;;;;;;40.25;19.95;;;2.50;99.90;;;;;;7855343;28;20947;-89
2023/12/09 15:16:48;;;;;;;35.87;15.97;;;2.40;99.90;;;;;;7843007;28;20245;-90
2023/12/09 15:20:33;;;;;;;34.43;15.73;;;2.40;99.90;;;;;;7869093;28;20252;-88
2023/12/09 15:24:21;;;;;;;34.13;14.60;;;2.40;99.90;;;;;;7852306;28;20240;-88
2023/12/09 15:28:07;;;;;;;31.73;15.47;;;2.30;99.90;;;;;;7870087;28;20176;-92
2023/12/09 15:31:53;;;;;;;31.00;14.83;;;2.30;99.90;;;;;;7853088;28;20754;-87
2023/12/09 15:35:38;;;;;;;32.37;14.80;;;2.30;99.90;;;;;;7852656;28;20217;-87
2023/12/09 15:39:24;;;;;;;30.80;14.33;;;2.20;99.90;;;;;;7870606;28;20634;-87
2023/12/09 15:43:10;;;;;;;29.37;14.13;;;2.20;99.90;;;;;;7868878;28;20197;-88
2023/12/09 15:46:56;;;;;;;30.43;13.90;;;2.30;99.90;;;;;;7869473;28;20177;-86
2023/12/09 15:50:41;;;;;;;32.27;14.33;;;2.10;99.90;;;;;;7870362;28;20193;-87
2023/12/09 15:54:27;;;;;;;36.57;19.10;;;2.20;99.90;;;;;;7851541;28;20454;-87
2023/12/09 15:58:13;;;;;;;30.40;13.63;;;2.20;99.90;;;;;;7847845;28;20193;-87
2023/12/09 16:01:59;;;;;;;27.87;13.03;;;2.20;99.90;;;;;;7845980;28;20342;-88
2023/12/09 16:05:47;;;;;;;30.50;14.50;;;2.10;99.90;;;;;;7868659;28;20178;-87
2023/12/09 16:09:33;;;;;;;27.77;12.67;;;2.10;99.90;;;;;;7865462;28;20189;-86
2023/12/09 16:13:21;;;;;;;27.93;13.60;;;2.10;99.90;;;;;;7859873;28;20220;-86
2023/12/09 16:17:07;;;;;;;26.30;12.33;;;2.10;99.90;;;;;;7867531;28;20174;-86
2023/12/09 16:20:54;;;;;;;27.27;12.30;;;2.10;99.90;;;;;;7866446;28;20628;-86
2023/12/09 16:24:40;;;;;;;24.57;11.73;;;2.10;99.90;;;;;;7851259;28;20220;-86
2023/12/09 16:28:26;;;;;;;25.80;12.00;;;2.10;99.90;;;;;;7869425;28;20174;-86
2023/12/09 16:32:12;;;;;;;28.57;11.40;;;2.10;99.90;;;;;;7850325;28;20307;-88
2023/12/09 16:35:57;;;;;;;23.50;11.43;;;2.10;99.90;;;;;;7870482;28;20170;-87
2023/12/09 16:39:43;;;;;;;22.77;10.93;;;2.20;99.90;;;;;;7875893;28;20536;-87
2023/12/09 16:43:29;;;;;;;19.93;10.00;;;2.10;99.90;;;;;;7871936;28;20263;-86
2023/12/09 16:47:15;;;;;;;22.77;10.70;;;2.10;99.90;;;;;;7874278;28;20452;-86
2023/12/09 16:51:01;;;;;;;19.90;10.13;;;2.10;99.90;;;;;;7857034;28;20254;-86
2023/12/09 16:54:48;;;;;;;19.63;10.03;;;2.10;99.90;;;;;;7874712;28;20193;-87
2023/12/09 16:58:33;;;;;;;22.37;11.13;;;2.10;99.90;;;;;;7854500;28;20211;-87
2023/12/09 17:02:19;;;;;;;25.03;11.17;;;2.20;99.90;;;;;;7847547;28;20193;-86
2023/12/09 17:06:06;;;;;;;23.60;10.60;;;2.20;99.90;;;;;;7873425;28;20627;-86
2023/12/09 17:09:51;;;;;;;21.73;10.33;;;2.20;99.90;;;;;;7858029;28;20192;-87
2023/12/09 17:13:37;;;;;;;18.60;9.33;;;2.20;99.90;;;;;;7856204;28;20288;-87
2023/12/09 17:17:24;;;;;;;21.30;10.03;;;2.20;99.90;;;;;;7857005;28;20169;-87
2023/12/09 17:21:10;;;;;;;20.77;9.70;;;2.10;99.90;;;;;;7875634;28;20248;-87
2023/12/09 17:24:55;;;;;;;21.33;10.03;;;2.10;99.90;;;;;;7855790;28;20212;-87
2023/12/09 17:28:41;;;;;;;18.87;9.73;;;2.10;99.90;;;;;;7856171;28;20185;-87
2023/12/09 17:32:27;;;;;;;19.90;10.03;;;2.20;99.90;;;;;;7856110;28;20232;-87
2023/12/09 17:36:13;;;;;;;17.33;10.03;;;2.20;99.90;;;;;;7872436;28;20220;-87
2023/12/09 17:40:00;;;;;;;21.47;10.50;;;2.20;99.90;;;;;;7856406;28;20205;-87
2023/12/09 17:43:49;;;;;;;21.03;11.47;;;2.20;99.90;;;;;;7868002;28;20201;-87
2023/12/09 17:47:35;;;;;;;24.70;11.20;;;2.20;99.90;;;;;;7873667;28;20188;-87
2023/12/09 17:51:20;;;;;;;20.50;10.70;;;2.30;99.90;;;;;;7862483;28;20292;-87
2023/12/09 17:55:06;;;;;;;19.50;10.10;;;2.20;99.90;;;;;;7856873;28;20535;-87
2023/12/09 17:58:53;;;;;;;19.57;10.53;;;2.20;99.90;;;;;;7856708;28;20214;-87
2023/12/09 18:02:42;;;;;;;19.23;10.40;;;2.30;99.90;;;;;;7861685;28;20193;-87
2023/12/09 18:06:29;;;;;;;22.03;11.13;;;2.30;99.90;;;;;;7859378;28;20185;-87
2023/12/09 18:10:15;;;;;;;20.00;10.67;;;2.30;99.90;;;;;;7856824;28;20623;-87
2023/12/09 18:14:02;;;;;;;23.20;11.70;;;2.30;99.90;;;;;;7860920;28;20577;-87
2023/12/09 18:17:48;;;;;;;25.77;11.83;;;2.20;99.90;;;;;;7872706;28;20526;-86
2023/12/09 18:21:34;;;;;;;26.63;12.67;;;2.20;99.90;;;;;;7851338;28;20200;-87
2023/12/09 18:25:20;;;;;;;24.27;12.60;;;2.20;99.90;;;;;;7866895;28;20212;-88
2023/12/09 18:29:06;;;;;;;25.97;14.13;;;2.20;99.90;;;;;;7872635;28;20182;-88
2023/12/09 18:32:51;;;;;;;23.10;12.83;;;2.20;99.90;;;;;;7856043;28;20197;-88
2023/12/09 18:36:37;;;;;;;25.40;13.03;;;2.20;99.90;;;;;;7855496;28;20251;-86
2023/12/09 18:40:23;;;;;;;29.23;13.37;;;2.20;99.90;;;;;;7854382;28;20271;-87
2023/12/09 18:44:09;;;;;;;28.30;15.27;;;2.20;99.90;;;;;;7861550;28;20217;-87
2023/12/09 18:47:54;;;;;;;31.50;14.87;;;2.10;99.90;;;;;;7856422;28;20185;-86
2023/12/09 18:51:41;;;;;;;27.37;14.97;;;2.10;99.90;;;;;;7873963;28;20713;-87
2023/12/09 18:55:30;;;;;;;24.67;13.67;;;2.10;99.90;;;;;;7854661;28;20565;-84
2023/12/09 18:59:16;;;;;;;27.87;13.73;;;2.00;99.90;;;;;;7859524;28;20185;-86
2023/12/09 19:03:01;;;;;;;24.50;13.83;;;2.00;99.90;;;;;;7873568;28;20200;-88
2023/12/09 19:06:49;;;;;;;27.63;14.03;;;2.00;99.90;;;;;;7875071;28;20773;-87
2023/12/09 19:10:34;;;;;;;25.70;13.73;;;2.00;99.90;;;;;;7853340;28;20263;-88
2023/12/09 19:14:20;;;;;;;23.20;12.83;;;2.00;99.90;;;;;;7852267;28;20189;-88
2023/12/09 19:18:06;;;;;;;24.33;13.87;;;2.00;99.90;;;;;;7852999;28;20204;-87
2023/12/09 19:21:51;;;;;;;25.40;12.57;;;2.00;99.90;;;;;;7852671;28;20678;-86
2023/12/09 19:25:37;;;;;;;25.37;13.30;;;2.10;99.90;;;;;;7853832;28;20209;-87